Time;durP1;ratioP1;P1;durP2;ratioP2;P2;SDS_P1;SDS_P2;PMS_P1;PMS_P2;Temp;Humidity;BMP_temperature;BMP_pressure;BME280_temperature;BME280_humidity;BME280_pressure;Samples;Min_cycle;Max_cycle;Signal;HPM_P1;HPM_P2
2024/04/13 00:00:18;;;;;;;3.17;1.35;;;19.00;86.40;;;;;;5381654;26;20470;-40
2024/04/13 00:02:43;;;;;;;3.17;1.70;;;19.00;86.40;;;;;;5381632;26;20330;-40
2024/04/13 00:05:09;;;;;;;4.05;1.70;;;19.00;86.50;;;;;;5382057;26;20446;-42
2024/04/13 00:07:36;;;;;;;3.17;1.55;;;19.00;86.50;;;;;;5381737;26;20008;-40
2024/04/13 00:10:03;;;;;;;3.05;1.27;;;19.00;86.50;;;;;;5381387;26;20457;-40
2024/04/13 00:12:29;;;;;;;2.10;1.27;;;19.00;86.60;;;;;;5381567;26;20011;-41
2024/04/13 00:14:54;;;;;;;2.17;1.27;;;19.00;86.60;;;;;;5381585;26;20357;-45
2024/04/13 00:17:21;;;;;;;3.38;1.50;;;19.00;86.60;;;;;;5381511;26;20376;-41
2024/04/13 00:19:49;;;;;;;3.00;1.65;;;19.00;86.60;;;;;;5381306;26;20461;-43
2024/04/13 00:22:15;;;;;;;3.30;1.30;;;19.00;86.60;;;;;;5381388;26;20484;-42
2024/04/13 00:24:41;;;;;;;3.67;1.40;;;19.00;86.50;;;;;;5381388;26;20000;-42
2024/04/13 00:27:07;;;;;;;3.63;1.40;;;18.90;86.50;;;;;;5381397;26;19996;-41
2024/04/13 00:29:32;;;;;;;2.75;1.38;;;19.00;86.60;;;;;;5381238;26;19996;-40
2024/04/13 00:31:58;;;;;;;2.30;1.35;;;19.00;86.60;;;;;;5381110;26;20012;-41
2024/04/13 00:34:24;;;;;;;2.38;1.25;;;19.00;86.60;;;;;;5381212;26;20446;-44
2024/04/13 00:36:50;;;;;;;2.88;1.30;;;18.90;86.50;;;;;;5381425;26;20000;-41
2024/04/13 00:39:15;;;;;;;1.77;1.20;;;18.90;86.60;;;;;;5381164;26;19996;-42
2024/04/13 00:41:41;;;;;;;2.58;1.40;;;18.90;86.60;;;;;;5381154;26;20000;-43
2024/04/13 00:44:07;;;;;;;2.00;1.40;;;18.90;86.60;;;;;;5381407;26;20008;-40
2024/04/13 00:46:33;;;;;;;2.42;1.20;;;18.90;86.60;;;;;;5381076;26;19996;-40
2024/04/13 00:49:00;;;;;;;1.95;1.30;;;18.90;86.70;;;;;;5380927;26;20000;-45
2024/04/13 00:51:29;;;;;;;3.83;1.23;;;18.90;86.60;;;;;;5380872;26;20006;-44
2024/04/13 00:53:55;;;;;;;3.15;1.55;;;18.90;86.60;;;;;;5381034;26;20000;-42
2024/04/13 00:56:22;;;;;;;1.95;1.00;;;18.90;86.60;;;;;;5380935;26;20006;-40
2024/04/13 00:58:48;;;;;;;2.50;1.35;;;18.90;86.60;;;;;;5380943;26;20040;-41
2024/04/13 01:01:16;;;;;;;2.03;1.20;;;18.80;86.70;;;;;;5380734;26;19996;-42
2024/04/13 01:03:43;;;;;;;3.42;1.30;;;18.80;86.70;;;;;;5381106;26;20007;-43
2024/04/13 01:06:10;;;;;;;1.75;1.10;;;18.90;86.70;;;;;;5380629;26;20007;-40
2024/04/13 01:08:36;;;;;;;2.80;1.40;;;18.80;86.70;;;;;;5380720;26;19996;-43
2024/04/13 01:11:02;;;;;;;2.72;1.25;;;18.80;86.70;;;;;;5380640;26;20011;-41
2024/04/13 01:13:29;;;;;;;1.95;1.05;;;18.80;86.70;;;;;;5380867;26;20356;-41
2024/04/13 01:15:54;;;;;;;2.38;1.42;;;18.80;86.60;;;;;;5380654;26;19992;-42
2024/04/13 01:18:20;;;;;;;2.15;1.23;;;18.80;86.70;;;;;;5380494;26;19997;-44
2024/04/13 01:20:46;;;;;;;3.42;1.40;;;18.80;86.60;;;;;;5380552;26;20525;-42
2024/04/13 01:23:14;;;;;;;2.33;1.30;;;18.80;86.70;;;;;;5378945;26;20000;-42
2024/04/13 01:25:42;;;;;;;1.88;1.20;;;18.80;86.80;;;;;;5380611;26;20583;-44
2024/04/13 01:28:09;;;;;;;2.20;1.38;;;18.80;86.60;;;;;;5380413;26;20004;-40
2024/04/13 01:30:35;;;;;;;1.70;1.10;;;18.80;86.60;;;;;;5380265;26;20058;-42
2024/04/13 01:33:02;;;;;;;1.92;1.10;;;18.80;86.50;;;;;;5380287;26;19992;-44
2024/04/13 01:35:30;;;;;;;2.00;1.08;;;18.80;86.50;;;;;;5380407;26;20004;-42
2024/04/13 01:37:56;;;;;;;2.03;1.30;;;18.80;86.60;;;;;;5380777;26;20000;-40
2024/04/13 01:40:22;;;;;;;3.58;1.23;;;18.80;86.50;;;;;;5380200;26;20000;-42
2024/04/13 01:42:48;;;;;;;1.55;0.93;;;18.80;86.60;;;;;;5380444;26;20054;-40
2024/04/13 01:45:14;;;;;;;2.80;1.35;;;18.80;86.60;;;;;;5380238;26;20000;-43
2024/04/13 01:47:40;;;;;;;1.85;1.15;;;18.80;86.80;;;;;;5380106;26;19996;-41
2024/04/13 01:50:06;;;;;;;1.70;1.15;;;18.80;86.50;;;;;;5380053;26;20016;-40
2024/04/13 01:52:32;;;;;;;2.42;1.20;;;18.80;86.60;;;;;;5380210;26;20000;-44
2024/04/13 01:54:59;;;;;;;2.45;1.30;;;18.80;86.50;;;;;;5380123;26;20043;-46
2024/04/13 01:57:25;;;;;;;1.77;1.02;;;18.70;86.50;;;;;;5379952;26;20001;-42
2024/04/13 01:59:51;;;;;;;2.33;1.35;;;18.80;86.60;;;;;;5379895;26;19996;-44
2024/04/13 02:02:16;;;;;;;2.92;1.20;;;18.70;86.40;;;;;;5380368;26;20008;-40
2024/04/13 02:04:42;;;;;;;2.42;1.27;;;18.80;86.50;;;;;;5379988;26;20000;-42
2024/04/13 02:07:07;;;;;;;2.40;1.20;;;18.80;86.50;;;;;;5379926;26;20069;-42
2024/04/13 02:09:33;;;;;;;2.88;1.58;;;18.70;86.60;;;;;;5379795;26;20518;-44
2024/04/13 02:12:02;;;;;;;2.85;1.35;;;18.70;86.60;;;;;;5379800;26;19997;-40
2024/04/13 02:14:28;;;;;;;2.33;1.40;;;18.70;86.60;;;;;;5379599;26;20000;-41
2024/04/13 02:16:53;;;;;;;2.67;1.50;;;18.70;86.60;;;;;;5381115;26;20011;-39
2024/04/13 02:19:19;;;;;;;2.00;1.13;;;18.70;86.50;;;;;;5383292;26;21235;-40
2024/04/13 02:21:46;;;;;;;2.55;1.15;;;18.70;86.60;;;;;;5383019;26;20006;-41
2024/04/13 02:24:13;;;;;;;3.08;1.40;;;18.70;86.40;;;;;;5383149;26;20450;-43
2024/04/13 02:26:38;;;;;;;2.20;1.50;;;18.70;86.50;;;;;;5383062;26;20065;-41
2024/04/13 02:29:04;;;;;;;1.75;1.00;;;18.70;86.60;;;;;;5382647;26;20338;-42
2024/04/13 02:31:30;;;;;;;2.17;1.40;;;18.70;86.50;;;;;;5382867;26;20457;-40
2024/04/13 02:33:55;;;;;;;1.70;1.23;;;18.70;86.40;;;;;;5382991;26;20038;-44
2024/04/13 02:36:21;;;;;;;1.50;1.30;;;18.70;86.50;;;;;;5382867;26;20000;-42
2024/04/13 02:38:47;;;;;;;1.92;1.27;;;18.70;86.50;;;;;;5382885;26;19997;-41
2024/04/13 02:41:13;;;;;;;3.88;1.38;;;18.60;86.50;;;;;;5382660;26;20008;-42
2024/04/13 02:43:39;;;;;;;2.63;1.40;;;18.60;86.50;;;;;;5382642;26;20012;-43
2024/04/13 02:46:08;;;;;;;1.58;1.15;;;18.70;86.50;;;;;;5382809;26;20407;-43
2024/04/13 02:48:38;;;;;;;1.73;1.10;;;18.60;86.50;;;;;;5382695;26;19996;-44
2024/04/13 02:51:05;;;;;;;3.75;1.27;;;18.60;86.50;;;;;;5382569;26;20001;-41
2024/04/13 02:53:31;;;;;;;2.42;1.10;;;18.60;86.40;;;;;;5382707;26;20001;-41
2024/04/13 02:55:56;;;;;;;1.98;1.20;;;18.60;86.60;;;;;;5382920;26;20007;-41
2024/04/13 02:58:22;;;;;;;2.47;1.23;;;18.60;86.50;;;;;;5382556;26;20472;-42
2024/04/13 03:00:55;;;;;;;2.00;1.10;;;18.60;86.50;;;;;;5382451;26;20004;-40
2024/04/13 03:03:20;;;;;;;1.65;0.88;;;18.60;86.60;;;;;;5382609;26;20032;-40
2024/04/13 03:05:56;;;;;;;2.78;1.27;;;18.60;86.60;;;;;;5382285;26;20003;-40
2024/04/13 03:08:21;;;;;;;2.33;1.38;;;18.60;86.60;;;;;;5382731;26;20020;-41
2024/04/13 03:10:55;;;;;;;1.60;1.10;;;18.60;86.60;;;;;;5382527;26;20011;-41
2024/04/13 03:13:21;;;;;;;1.92;1.20;;;18.60;86.50;;;;;;5382380;26;20004;-40
2024/04/13 03:16:03;;;;;;;1.67;1.33;;;18.50;86.50;;;;;;5382455;26;20330;-42
2024/04/13 03:18:33;;;;;;;2.08;1.10;;;18.50;86.40;;;;;;5382371;26;20338;-41
2024/04/13 03:20:59;;;;;;;2.15;1.20;;;18.50;87.20;;;;;;5381985;26;20482;-41
2024/04/13 03:23:25;;;;;;;2.30;1.10;;;18.50;86.40;;;;;;5382353;26;20007;-40
2024/04/13 03:25:51;;;;;;;3.15;1.30;;;18.50;86.40;;;;;;5382223;26;20077;-42
2024/04/13 03:28:25;;;;;;;1.65;1.40;;;18.50;86.50;;;;;;5381955;26;20338;-42
2024/04/13 03:30:51;;;;;;;4.28;1.23;;;18.50;86.40;;;;;;5382070;26;20449;-40
2024/04/13 03:33:16;;;;;;;1.70;1.17;;;18.50;86.40;;;;;;5382102;26;20074;-41
2024/04/13 03:35:42;;;;;;;1.63;1.10;;;18.50;86.60;;;;;;5382220;26;20077;-40
2024/04/13 03:38:08;;;;;;;2.25;1.23;;;18.50;86.40;;;;;;5382032;26;20000;-42
2024/04/13 03:40:37;;;;;;;2.50;1.10;;;18.50;86.50;;;;;;5381868;26;20012;-42
2024/04/13 03:43:03;;;;;;;2.35;1.25;;;18.50;86.40;;;;;;5381969;26;20007;-42
2024/04/13 03:45:29;;;;;;;1.77;1.13;;;18.50;86.40;;;;;;5381890;26;20334;-40
2024/04/13 03:47:55;;;;;;;1.30;0.80;;;18.50;86.50;;;;;;5381797;26;20007;-41
2024/04/13 03:50:21;;;;;;;2.35;1.10;;;18.50;86.50;;;;;;5381702;26;20070;-41
2024/04/13 03:52:46;;;;;;;2.25;1.20;;;18.50;86.50;;;;;;5381804;26;20032;-41
2024/04/13 03:55:12;;;;;;;1.92;0.90;;;18.50;86.40;;;;;;5381941;26;19996;-40
2024/04/13 03:57:38;;;;;;;1.77;1.00;;;18.50;86.40;;;;;;5381740;26;20357;-40
2024/04/13 04:00:06;;;;;;;1.83;1.08;;;18.40;86.40;;;;;;5381647;26;20011;-42
2024/04/13 04:02:32;;;;;;;3.88;0.82;;;18.40;86.30;;;;;;5381666;26;20000;-40
2024/04/13 04:04:58;;;;;;;2.75;1.20;;;18.40;86.50;;;;;;5381725;26;20449;-42
2024/04/13 04:07:24;;;;;;;1.48;0.98;;;18.50;86.40;;;;;;5381593;26;19997;-41
2024/04/13 04:09:50;;;;;;;1.70;1.10;;;18.40;86.40;;;;;;5381631;26;20481;-40
2024/04/13 04:12:15;;;;;;;1.77;1.10;;;18.40;86.40;;;;;;5381329;26;20042;-41
2024/04/13 04:14:41;;;;;;;2.40;1.00;;;18.40;86.40;;;;;;5381479;26;20008;-42
2024/04/13 04:17:07;;;;;;;1.55;1.00;;;18.40;86.50;;;;;;5381543;26;20000;-41
2024/04/13 04:19:33;;;;;;;1.38;0.95;;;18.40;86.40;;;;;;5381466;26;20011;-43
2024/04/13 04:21:58;;;;;;;3.30;1.15;;;18.40;86.40;;;;;;5381387;26;20008;-42
2024/04/13 04:24:24;;;;;;;2.17;1.20;;;18.40;86.40;;;;;;5381520;26;20068;-42
2024/04/13 04:26:50;;;;;;;1.50;1.00;;;18.40;86.30;;;;;;5381544;26;20408;-42
2024/04/13 04:29:15;;;;;;;1.98;1.13;;;18.40;86.40;;;;;;5381108;26;20073;-43
2024/04/13 04:31:42;;;;;;;1.83;1.00;;;18.40;86.40;;;;;;5381215;26;20010;-42
2024/04/13 04:34:08;;;;;;;2.97;1.02;;;18.40;86.40;;;;;;5381350;26;20380;-43
2024/04/13 04:36:34;;;;;;;2.90;1.00;;;18.40;86.40;;;;;;5381332;26;20396;-42
2024/04/13 04:39:00;;;;;;;2.35;1.20;;;18.40;86.40;;;;;;5380458;26;20000;-42
2024/04/13 04:41:29;;;;;;;1.80;1.00;;;18.30;86.30;;;;;;5381472;26;19996;-40
2024/04/13 04:43:55;;;;;;;1.60;0.90;;;18.40;86.50;;;;;;5381324;26;20012;-40
2024/04/13 04:46:21;;;;;;;1.77;1.13;;;18.40;86.50;;;;;;5381298;26;20007;-40
2024/04/13 04:48:53;;;;;;;3.30;1.17;;;18.40;86.50;;;;;;5381101;26;20008;-41
2024/04/13 04:51:20;;;;;;;3.53;1.10;;;18.40;86.60;;;;;;5380891;26;20004;-42
2024/04/13 04:53:46;;;;;;;2.22;1.35;;;18.40;86.40;;;;;;5381140;26;20013;-44
2024/04/13 04:56:12;;;;;;;1.30;0.90;;;18.30;87.10;;;;;;5380808;26;19996;-40
2024/04/13 04:58:37;;;;;;;2.42;1.20;;;18.30;86.40;;;;;;5379149;26;19992;-40
2024/04/13 05:01:05;;;;;;;2.65;1.02;;;18.30;86.50;;;;;;5380862;26;20010;-42
2024/04/13 05:03:30;;;;;;;1.67;1.00;;;18.30;86.40;;;;;;5380939;26;20008;-42
2024/04/13 05:05:56;;;;;;;1.50;1.02;;;18.30;86.40;;;;;;5380843;26;20000;-43
2024/04/13 05:08:22;;;;;;;2.25;1.00;;;18.30;86.40;;;;;;5380787;26;20026;-42
2024/04/13 05:10:48;;;;;;;2.20;1.10;;;18.30;86.50;;;;;;5380523;26;20006;-40
2024/04/13 05:13:14;;;;;;;2.00;1.00;;;18.30;86.40;;;;;;5380777;26;20070;-42
2024/04/13 05:15:40;;;;;;;0.88;0.85;;;18.30;86.50;;;;;;5380722;26;19996;-42
2024/04/13 05:18:06;;;;;;;3.80;1.10;;;18.30;86.50;;;;;;5380525;26;19996;-41
2024/04/13 05:20:33;;;;;;;2.13;0.93;;;18.30;86.50;;;;;;5380642;26;20471;-42
2024/04/13 05:22:59;;;;;;;2.67;1.55;;;18.30;86.50;;;;;;5380923;26;20070;-40
2024/04/13 05:25:25;;;;;;;2.08;1.05;;;18.30;86.50;;;;;;5380561;26;20023;-41
2024/04/13 05:27:50;;;;;;;2.35;1.20;;;18.30;86.50;;;;;;5380374;26;20014;-44
2024/04/13 05:30:16;;;;;;;1.88;1.30;;;18.30;86.50;;;;;;5380359;26;20357;-40
2024/04/13 05:32:41;;;;;;;2.35;1.23;;;18.20;86.40;;;;;;5380471;26;20087;-42
2024/04/13 05:35:07;;;;;;;2.28;1.10;;;18.30;86.50;;;;;;5380483;26;19996;-40
2024/04/13 05:37:36;;;;;;;2.00;1.00;;;18.20;86.40;;;;;;5380314;26;19996;-42
2024/04/13 05:40:04;;;;;;;2.22;1.27;;;18.20;86.40;;;;;;5379982;26;20000;-41
2024/04/13 05:42:30;;;;;;;3.05;1.15;;;18.20;86.50;;;;;;5380417;26;20004;-41
2024/04/13 05:44:55;;;;;;;2.50;1.20;;;18.20;86.60;;;;;;5380362;26;20003;-42
2024/04/13 05:47:21;;;;;;;3.33;1.10;;;18.20;86.60;;;;;;5380240;26;20028;-41
2024/04/13 05:49:46;;;;;;;1.52;1.15;;;18.20;86.50;;;;;;5380137;26;20003;-42
2024/04/13 05:52:13;;;;;;;2.58;1.08;;;18.20;86.60;;;;;;5378615;26;19996;-40
2024/04/13 05:54:38;;;;;;;1.60;1.05;;;18.20;86.60;;;;;;5378237;26;19997;-40
2024/04/13 05:57:06;;;;;;;3.05;0.98;;;18.20;86.60;;;;;;5380136;26;20370;-40
2024/04/13 05:59:32;;;;;;;1.95;1.00;;;18.20;86.70;;;;;;5379923;26;20007;-43
2024/04/13 06:01:58;;;;;;;3.60;1.10;;;18.20;86.60;;;;;;5379943;26;19996;-42
2024/04/13 06:04:23;;;;;;;2.15;1.08;;;18.20;86.70;;;;;;5380021;26;20073;-40
2024/04/13 06:06:50;;;;;;;2.50;1.30;;;18.20;86.70;;;;;;5380011;26;20041;-41
2024/04/13 06:09:16;;;;;;;1.70;1.10;;;18.20;86.70;;;;;;5379965;26;20032;-42
2024/04/13 06:11:42;;;;;;;2.00;1.30;;;18.20;86.80;;;;;;5379972;26;20007;-41
2024/04/13 06:14:08;;;;;;;2.00;1.10;;;18.10;86.80;;;;;;5380270;26;20000;-42
2024/04/13 06:16:34;;;;;;;2.38;1.27;;;18.10;86.80;;;;;;5379932;26;20072;-41
2024/04/13 06:18:59;;;;;;;3.10;1.02;;;18.10;87.00;;;;;;5379717;26;20368;-40
2024/04/13 06:21:26;;;;;;;1.58;1.08;;;18.10;87.00;;;;;;5379904;26;20011;-42
2024/04/13 06:23:52;;;;;;;1.98;1.05;;;18.10;87.10;;;;;;5379503;26;19996;-41
2024/04/13 06:26:17;;;;;;;2.13;1.05;;;18.10;86.90;;;;;;5379582;26;20004;-40
2024/04/13 06:28:43;;;;;;;1.70;1.10;;;18.20;87.10;;;;;;5379561;26;19996;-42
2024/04/13 06:31:09;;;;;;;2.05;1.25;;;18.10;86.90;;;;;;5379375;26;20008;-42
2024/04/13 06:33:34;;;;;;;2.95;0.80;;;18.20;87.10;;;;;;5379548;26;20015;-41
2024/04/13 06:36:00;;;;;;;2.00;0.95;;;18.20;87.10;;;;;;5377861;26;20329;-41
2024/04/13 06:38:26;;;;;;;1.67;0.82;;;18.20;87.00;;;;;;5379214;26;20000;-40
2024/04/13 06:40:53;;;;;;;2.25;1.30;;;18.30;87.00;;;;;;5379379;26;20029;-42
2024/04/13 06:43:19;;;;;;;3.60;1.08;;;18.30;86.90;;;;;;5379325;26;20468;-40
2024/04/13 06:45:46;;;;;;;1.65;0.90;;;18.30;86.90;;;;;;5379296;26;20011;-42
2024/04/13 06:48:12;;;;;;;2.17;1.10;;;18.30;86.90;;;;;;5379105;26;19996;-42
2024/04/13 06:50:37;;;;;;;1.55;1.00;;;18.30;86.90;;;;;;5379202;26;20007;-40
2024/04/13 06:53:03;;;;;;;1.25;1.00;;;18.30;86.90;;;;;;5378811;26;20000;-41
2024/04/13 06:55:29;;;;;;;4.30;1.20;;;18.30;86.80;;;;;;5379125;26;20004;-42
2024/04/13 06:57:54;;;;;;;2.28;1.00;;;18.30;86.90;;;;;;5379037;26;20073;-44
2024/04/13 07:00:20;;;;;;;1.42;1.05;;;18.30;86.90;;;;;;5378938;26;20472;-40
2024/04/13 07:02:48;;;;;;;1.88;1.23;;;18.30;86.80;;;;;;5380218;26;20000;-42
2024/04/13 07:05:14;;;;;;;3.53;1.10;;;18.40;86.90;;;;;;5382339;26;20338;-42
2024/04/13 07:07:40;;;;;;;1.83;1.00;;;18.40;86.80;;;;;;5382344;26;20007;-40
2024/04/13 07:10:06;;;;;;;3.17;1.05;;;18.40;86.70;;;;;;5382323;26;20001;-41
2024/04/13 07:12:32;;;;;;;1.77;1.10;;;18.40;86.60;;;;;;5382217;26;19996;-42
2024/04/13 07:14:58;;;;;;;2.92;1.10;;;18.50;86.60;;;;;;5382398;26;20000;-42
2024/04/13 07:17:24;;;;;;;3.47;1.20;;;18.50;86.60;;;;;;5382369;26;19996;-41
2024/04/13 07:19:50;;;;;;;1.88;0.95;;;18.50;86.60;;;;;;5382409;26;20007;-42
2024/04/13 07:22:16;;;;;;;1.95;1.10;;;18.50;86.60;;;;;;5382184;26;20000;-40
2024/04/13 07:24:41;;;;;;;1.40;0.90;;;18.50;86.50;;;;;;5382378;26;20008;-42
2024/04/13 07:27:07;;;;;;;2.05;0.95;;;18.60;86.60;;;;;;5382078;26;20095;-42
2024/04/13 07:29:33;;;;;;;1.33;0.90;;;18.60;86.50;;;;;;5382136;26;20043;-43
2024/04/13 07:31:58;;;;;;;1.77;1.02;;;18.60;86.40;;;;;;5382018;26;20000;-42
2024/04/13 07:34:24;;;;;;;2.08;1.00;;;18.70;86.40;;;;;;5382404;26;20037;-42
2024/04/13 07:36:49;;;;;;;4.10;1.23;;;18.70;86.40;;;;;;5382297;26;20449;-41
2024/04/13 07:39:15;;;;;;;1.90;1.08;;;18.70;86.40;;;;;;5381871;26;19997;-40
2024/04/13 07:41:41;;;;;;;1.55;1.00;;;18.70;86.30;;;;;;5382141;26;20000;-40
2024/04/13 07:44:07;;;;;;;2.90;1.00;;;18.70;86.20;;;;;;5382393;26;20000;-42
2024/04/13 07:46:33;;;;;;;1.48;1.00;;;18.80;86.10;;;;;;5382012;26;20008;-42
2024/04/13 07:48:59;;;;;;;1.38;0.80;;;18.80;86.10;;;;;;5381934;26;20001;-41
2024/04/13 07:51:25;;;;;;;1.45;0.80;;;18.90;86.00;;;;;;5381709;26;19993;-41
2024/04/13 07:53:50;;;;;;;1.67;0.90;;;18.90;85.90;;;;;;5381954;26;20073;-41
2024/04/13 07:56:16;;;;;;;2.22;0.90;;;19.00;85.90;;;;;;5381672;26;20003;-41
2024/04/13 07:58:42;;;;;;;2.17;1.20;;;19.00;85.90;;;;;;5381754;26;20008;-41
2024/04/13 08:01:07;;;;;;;1.15;0.80;;;19.00;85.80;;;;;;5381804;26;20411;-40
2024/04/13 08:03:33;;;;;;;1.20;0.90;;;19.10;85.80;;;;;;5382507;26;20010;-42
2024/04/13 08:05:59;;;;;;;1.00;0.90;;;19.10;85.70;;;;;;5381662;26;20007;-42
2024/04/13 08:08:26;;;;;;;1.17;0.85;;;19.10;85.60;;;;;;5381606;26;20032;-41
2024/04/13 08:10:51;;;;;;;1.50;0.80;;;19.10;86.30;;;;;;5381313;26;19996;-42
2024/04/13 08:13:17;;;;;;;1.13;0.70;;;19.20;85.60;;;;;;5381701;26;20051;-40
2024/04/13 08:15:43;;;;;;;1.65;0.90;;;19.20;85.50;;;;;;5380477;26;20000;-42
2024/04/13 08:18:09;;;;;;;1.23;0.88;;;19.20;85.50;;;;;;5381414;26;20337;-41
2024/04/13 08:20:35;;;;;;;1.60;1.02;;;19.30;85.40;;;;;;5381363;26;20000;-42
2024/04/13 08:23:01;;;;;;;2.13;1.15;;;19.30;85.40;;;;;;5381547;26;20082;-40
2024/04/13 08:25:30;;;;;;;2.03;1.00;;;19.30;85.30;;;;;;5381428;26;20007;-42
2024/04/13 08:27:56;;;;;;;1.38;0.93;;;19.40;85.30;;;;;;5381228;26;20000;-41
2024/04/13 08:30:22;;;;;;;1.55;0.95;;;19.40;85.20;;;;;;5381210;26;20007;-41
2024/04/13 08:32:48;;;;;;;1.55;0.98;;;19.40;85.10;;;;;;5381303;26;20441;-42
2024/04/13 08:35:17;;;;;;;1.98;1.20;;;19.50;85.10;;;;;;5381254;26;19996;-40
2024/04/13 08:37:46;;;;;;;2.05;1.13;;;19.50;85.00;;;;;;5381136;26;20007;-42
2024/04/13 08:40:11;;;;;;;0.93;0.80;;;19.60;85.00;;;;;;5380951;26;20040;-41
2024/04/13 08:42:40;;;;;;;1.02;0.70;;;19.70;84.90;;;;;;5381424;26;20449;-43
2024/04/13 08:45:10;;;;;;;1.90;0.82;;;19.70;84.70;;;;;;5381197;26;19996;-41
2024/04/13 08:47:40;;;;;;;1.83;1.00;;;19.70;84.70;;;;;;5381097;26;20046;-41
2024/04/13 08:50:07;;;;;;;1.63;0.82;;;19.80;84.60;;;;;;5381045;26;20382;-44
2024/04/13 08:52:33;;;;;;;1.63;0.90;;;19.80;84.50;;;;;;5380896;26;20421;-41
2024/04/13 08:54:59;;;;;;;1.35;0.90;;;19.80;84.40;;;;;;5381059;26;20062;-41
2024/04/13 08:57:29;;;;;;;1.65;0.90;;;19.90;84.30;;;;;;5380935;26;20681;-41
2024/04/13 09:00:00;;;;;;;2.08;0.70;;;19.90;84.20;;;;;;5380929;26;19996;-41
2024/04/13 09:02:31;;;;;;;2.10;0.98;;;20.00;84.20;;;;;;5380863;26;20504;-41
2024/04/13 09:04:58;;;;;;;0.90;0.70;;;20.00;84.00;;;;;;5380614;26;20002;-41
2024/04/13 09:07:25;;;;;;;1.48;0.93;;;20.10;84.00;;;;;;5380894;26;20335;-40
2024/04/13 09:09:53;;;;;;;1.92;0.82;;;20.10;84.00;;;;;;5380773;26;19996;-46
2024/04/13 09:12:19;;;;;;;10.77;1.25;;;20.10;83.90;;;;;;5380847;26;19997;-41
2024/04/13 09:14:46;;;;;;;3.97;1.23;;;20.20;84.50;;;;;;5380776;26;20031;-44
2024/04/13 09:17:13;;;;;;;2.75;1.15;;;20.30;84.50;;;;;;5380786;26;20343;-42
2024/04/13 09:19:38;;;;;;;3.55;1.00;;;20.40;84.30;;;;;;5380481;26;20073;-41
2024/04/13 09:22:04;;;;;;;4.00;1.15;;;20.50;83.90;;;;;;5380620;26;20016;-42
2024/04/13 09:24:43;;;;;;;4.00;1.23;;;20.50;84.40;;;;;;5380610;26;20339;-41
2024/04/13 09:27:25;;;;;;;4.30;1.10;;;20.60;83.50;;;;;;5380298;26;20070;-41
2024/04/13 09:29:50;;;;;;;4.25;1.30;;;20.60;83.40;;;;;;5380536;26;20077;-41
2024/04/13 09:32:26;;;;;;;6.78;1.20;;;20.60;83.30;;;;;;5380386;26;20446;-42
2024/04/13 09:34:52;;;;;;;3.53;1.10;;;20.70;83.40;;;;;;5380478;26;20003;-44
2024/04/13 09:37:20;;;;;;;3.85;1.00;;;20.60;83.30;;;;;;5380428;26;20004;-42
2024/04/13 09:39:46;;;;;;;2.55;0.90;;;20.60;84.10;;;;;;5380062;26;20077;-44
2024/04/13 09:42:13;;;;;;;4.50;1.02;;;20.60;83.30;;;;;;5380327;26;20004;-44
2024/04/13 09:44:40;;;;;;;4.75;1.30;;;20.70;83.40;;;;;;5380361;26;20000;-42
2024/04/13 09:47:06;;;;;;;2.72;1.05;;;20.60;83.30;;;;;;5380315;26;20000;-43
2024/04/13 09:49:31;;;;;;;2.25;1.00;;;20.70;83.40;;;;;;5378350;26;20417;-42
2024/04/13 09:51:58;;;;;;;2.22;0.80;;;20.70;83.40;;;;;;5380066;26;20441;-43
2024/04/13 09:54:27;;;;;;;1.90;1.00;;;20.70;83.40;;;;;;5380099;26;20012;-42
2024/04/13 09:56:53;;;;;;;2.92;0.82;;;20.70;83.40;;;;;;5380137;26;20040;-41
2024/04/13 09:59:21;;;;;;;2.85;0.90;;;20.70;83.40;;;;;;5380097;26;20345;-41
2024/04/13 10:01:47;;;;;;;1.52;0.80;;;20.80;83.50;;;;;;5379874;26;19996;-41
2024/04/13 10:04:16;;;;;;;4.57;0.90;;;20.80;83.40;;;;;;5380044;26;19996;-44
2024/04/13 10:06:45;;;;;;;1.63;0.80;;;20.80;83.30;;;;;;5379735;26;20004;-42
2024/04/13 10:09:16;;;;;;;1.77;0.88;;;20.80;83.30;;;;;;5379827;26;20007;-41
2024/04/13 10:11:46;;;;;;;3.45;0.63;;;20.80;83.30;;;;;;5379791;26;20011;-41
2024/04/13 10:14:13;;;;;;;2.20;0.90;;;20.80;83.20;;;;;;5379864;26;20150;-41
2024/04/13 10:16:42;;;;;;;4.40;1.00;;;20.90;83.20;;;;;;5379825;26;20156;-43
2024/04/13 10:19:13;;;;;;;2.63;0.90;;;20.90;83.20;;;;;;5379589;26;19997;-43
2024/04/13 10:21:38;;;;;;;3.40;0.90;;;20.90;83.20;;;;;;5379643;26;20012;-42
2024/04/13 10:24:04;;;;;;;2.05;0.88;;;20.90;83.20;;;;;;5379754;26;20345;-41
2024/04/13 10:26:30;;;;;;;1.38;0.82;;;20.90;83.20;;;;;;5379675;26;20000;-43
2024/04/13 10:29:04;;;;;;;1.77;0.93;;;20.90;83.10;;;;;;5379481;26;20004;-41
2024/04/13 10:31:31;;;;;;;;;;;20.90;83.10;;;;;;5379953;26;20008;-41
2024/04/13 10:33:58;;;;;;;3.65;0.90;;;20.90;83.10;;;;;;5379521;26;20017;-41
2024/04/13 10:36:41;;;;;;;4.40;0.75;;;20.90;83.20;;;;;;5379465;26;20004;-41
2024/04/13 10:39:09;;;;;;;1.85;0.70;;;20.90;83.20;;;;;;5382136;26;20004;-43
2024/04/13 10:41:36;;;;;;;3.55;0.70;;;20.90;83.10;;;;;;5382840;26;20070;-42
2024/04/13 10:44:04;;;;;;;1.45;0.80;;;21.00;83.20;;;;;;5383515;26;20548;-41
2024/04/13 10:46:30;;;;;;;2.15;0.70;;;21.00;83.20;;;;;;5383148;26;20000;-42
2024/04/13 10:48:56;;;;;;;1.80;0.75;;;21.00;83.20;;;;;;5381021;26;20013;-41
2024/04/13 10:51:22;;;;;;;1.90;0.70;;;21.00;83.10;;;;;;5382551;26;20004;-41
2024/04/13 10:53:49;;;;;;;2.40;0.80;;;21.00;83.10;;;;;;5382855;26;20545;-41
2024/04/13 10:56:15;;;;;;;1.50;0.60;;;21.00;83.10;;;;;;5382740;26;20007;-42
2024/04/13 10:58:41;;;;;;;1.75;0.88;;;21.00;83.90;;;;;;5382578;26;19996;-43
2024/04/13 11:01:07;;;;;;;1.40;0.80;;;21.10;83.10;;;;;;5382437;26;19996;-42
2024/04/13 11:03:33;;;;;;;1.55;0.70;;;21.10;83.10;;;;;;5382661;26;19996;-44
2024/04/13 11:06:03;;;;;;;4.82;0.88;;;21.10;83.00;;;;;;5382702;26;20323;-41
2024/04/13 11:08:29;;;;;;;2.45;0.60;;;21.10;83.00;;;;;;5382520;26;20069;-42
2024/04/13 11:11:00;;;;;;;1.98;0.85;;;21.20;83.10;;;;;;5382535;26;20007;-43
2024/04/13 11:13:29;;;;;;;1.80;0.70;;;21.20;83.00;;;;;;5382465;26;20000;-44
2024/04/13 11:15:55;;;;;;;1.20;0.60;;;21.20;83.00;;;;;;5382561;26;20015;-41
2024/04/13 11:18:21;;;;;;;1.50;0.70;;;21.20;83.00;;;;;;5382247;26;19992;-42
2024/04/13 11:20:51;;;;;;;1.67;0.85;;;21.20;82.90;;;;;;5382468;26;20074;-43
2024/04/13 11:23:17;;;;;;;1.73;0.50;;;21.30;83.00;;;;;;5382557;26;20349;-42
2024/04/13 11:25:43;;;;;;;4.45;1.00;;;21.30;83.80;;;;;;5382662;26;20000;-42
2024/04/13 11:28:09;;;;;;;1.65;0.80;;;21.30;82.90;;;;;;5382102;26;20414;-41
2024/04/13 11:30:41;;;;;;;0.80;0.60;;;21.40;83.00;;;;;;5382121;26;19996;-44
2024/04/13 11:33:10;;;;;;;1.55;0.70;;;21.40;82.90;;;;;;5382493;26;20073;-41
2024/04/13 11:35:36;;;;;;;3.30;0.70;;;21.40;82.80;;;;;;5382048;26;20391;-41
2024/04/13 11:38:01;;;;;;;1.27;0.70;;;21.40;82.70;;;;;;5382231;26;20000;-43
2024/04/13 11:40:30;;;;;;;2.17;0.70;;;21.50;82.80;;;;;;5382000;26;20074;-41
2024/04/13 11:42:57;;;;;;;2.35;0.80;;;21.50;82.80;;;;;;5382237;26;20000;-41
2024/04/13 11:45:23;;;;;;;1.88;0.80;;;21.50;82.80;;;;;;5382098;26;19996;-41
2024/04/13 11:47:49;;;;;;;2.40;0.80;;;21.50;82.70;;;;;;5382001;26;20011;-41
2024/04/13 11:50:16;;;;;;;1.33;0.73;;;21.50;82.80;;;;;;5380371;26;20011;-41
2024/04/13 11:52:42;;;;;;;2.75;0.82;;;21.50;82.70;;;;;;5382001;26;20000;-41
2024/04/13 11:55:08;;;;;;;1.38;0.65;;;21.60;82.70;;;;;;5381812;26;19996;-42
2024/04/13 11:57:43;;;;;;;1.08;0.70;;;21.60;82.70;;;;;;5381832;26;20341;-43
2024/04/13 12:00:10;;;;;;;3.75;0.80;;;21.60;82.60;;;;;;5381730;26;20006;-42
2024/04/13 12:02:35;;;;;;;1.10;0.50;;;21.60;82.60;;;;;;5381946;26;20453;-41
2024/04/13 12:05:01;;;;;;;2.40;0.80;;;21.70;82.60;;;;;;5381814;26;20039;-45
2024/04/13 12:07:27;;;;;;;1.48;0.70;;;21.70;82.60;;;;;;5381586;26;20008;-44
2024/04/13 12:09:52;;;;;;;1.20;0.70;;;21.70;82.50;;;;;;5381578;26;20358;-43
2024/04/13 12:12:18;;;;;;;1.20;0.70;;;21.70;82.50;;;;;;5381459;26;20023;-41
2024/04/13 12:14:46;;;;;;;2.33;0.75;;;21.70;82.50;;;;;;5381784;26;20061;-41
2024/04/13 12:17:13;;;;;;;1.60;0.80;;;21.70;82.50;;;;;;5382153;26;20000;-42
2024/04/13 12:19:38;;;;;;;1.77;0.80;;;21.70;82.50;;;;;;5381527;26;20353;-42
2024/04/13 12:22:04;;;;;;;6.97;1.05;;;21.70;82.70;;;;;;5381394;26;20011;-42
2024/04/13 12:24:30;;;;;;;9.15;1.30;;;22.00;82.20;;;;;;5381599;26;20011;-42
2024/04/13 12:26:56;;;;;;;4.80;1.27;;;22.10;81.90;;;;;;5381535;26;20008;-41
2024/04/13 12:29:22;;;;;;;2.83;1.05;;;22.20;81.80;;;;;;5381204;26;20365;-42
2024/04/13 12:31:47;;;;;;;2.15;1.00;;;22.30;81.60;;;;;;5381207;26;20007;-43
2024/04/13 12:34:13;;;;;;;6.45;1.20;;;22.30;81.70;;;;;;5381424;26;20008;-43
2024/04/13 12:36:38;;;;;;;3.03;1.10;;;22.20;81.70;;;;;;5381768;26;20340;-41
2024/04/13 12:39:04;;;;;;;2.40;0.90;;;22.20;81.80;;;;;;5380995;26;20004;-44
2024/04/13 12:41:29;;;;;;;2.50;0.88;;;22.20;82.00;;;;;;5381286;26;20012;-41
2024/04/13 12:43:55;;;;;;;1.20;0.82;;;22.20;82.10;;;;;;5381230;26;20000;-42